sensor_id;sensor_type;location;lat;lon;timestamp;P1;durP1;ratioP1;P2;durP2;ratioP2
3341;SDS011;1684;50.748;6.154;2023-05-14T00:01:48;9.63;;;8.63;;
3341;SDS011;1684;50.748;6.154;2023-05-14T00:04:17;9.47;;;8.47;;
3341;SDS011;1684;50.748;6.154;2023-05-14T00:06:45;9.87;;;8.87;;
3341;SDS011;1684;50.748;6.154;2023-05-14T00:09:15;11.03;;;9.10;;
3341;SDS011;1684;50.748;6.154;2023-05-14T00:11:43;10.23;;;8.93;;
3341;SDS011;1684;50.748;6.154;2023-05-14T00:14:12;9.70;;;8.70;;
3341;SDS011;1684;50.748;6.154;2023-05-14T00:16:40;13.33;;;8.80;;
3341;SDS011;1684;50.748;6.154;2023-05-14T00:19:08;10.47;;;9.37;;
3341;SDS011;1684;50.748;6.154;2023-05-14T00:21:36;12.33;;;10.43;;
3341;SDS011;1684;50.748;6.154;2023-05-14T00:24:05;12.13;;;9.27;;
3341;SDS011;1684;50.748;6.154;2023-05-14T00:26:34;9.50;;;8.60;;
3341;SDS011;1684;50.748;6.154;2023-05-14T00:29:03;10.90;;;9.13;;
3341;SDS011;1684;50.748;6.154;2023-05-14T00:31:31;9.40;;;8.47;;
3341;SDS011;1684;50.748;6.154;2023-05-14T00:33:59;10.93;;;8.97;;
3341;SDS011;1684;50.748;6.154;2023-05-14T00:36:27;11.60;;;8.70;;
3341;SDS011;1684;50.748;6.154;2023-05-14T00:38:56;10.50;;;9.40;;
3341;SDS011;1684;50.748;6.154;2023-05-14T00:41:24;9.30;;;8.17;;
3341;SDS011;1684;50.748;6.154;2023-05-14T00:43:54;11.93;;;9.17;;
3341;SDS011;1684;50.748;6.154;2023-05-14T00:46:22;16.03;;;9.93;;
3341;SDS011;1684;50.748;6.154;2023-05-14T00:48:50;11.07;;;9.50;;
3341;SDS011;1684;50.748;6.154;2023-05-14T00:51:19;19.40;;;10.00;;
3341;SDS011;1684;50.748;6.154;2023-05-14T00:53:47;12.00;;;10.17;;
3341;SDS011;1684;50.748;6.154;2023-05-14T00:56:15;14.50;;;10.53;;
3341;SDS011;1684;50.748;6.154;2023-05-14T00:58:44;11.93;;;10.33;;
3341;SDS011;1684;50.748;6.154;2023-05-14T01:01:13;11.63;;;10.40;;
3341;SDS011;1684;50.748;6.154;2023-05-14T01:03:43;11.23;;;10.13;;
3341;SDS011;1684;50.748;6.154;2023-05-14T01:06:14;12.30;;;10.67;;
3341;SDS011;1684;50.748;6.154;2023-05-14T01:08:46;12.63;;;10.53;;
3341;SDS011;1684;50.748;6.154;2023-05-14T01:11:17;11.43;;;10.00;;
3341;SDS011;1684;50.748;6.154;2023-05-14T01:13:48;11.37;;;9.03;;
3341;SDS011;1684;50.748;6.154;2023-05-14T01:16:20;10.03;;;9.00;;
3341;SDS011;1684;50.748;6.154;2023-05-14T01:18:49;10.50;;;9.17;;
3341;SDS011;1684;50.748;6.154;2023-05-14T01:24:02;11.23;;;9.90;;
3341;SDS011;1684;50.748;6.154;2023-05-14T01:26:31;9.60;;;8.43;;
3341;SDS011;1684;50.748;6.154;2023-05-14T01:29:03;11.63;;;8.47;;
3341;SDS011;1684;50.748;6.154;2023-05-14T01:31:35;9.40;;;8.40;;
3341;SDS011;1684;50.748;6.154;2023-05-14T01:34:04;10.33;;;8.67;;
3341;SDS011;1684;50.748;6.154;2023-05-14T01:36:33;9.73;;;8.63;;
3341;SDS011;1684;50.748;6.154;2023-05-14T01:39:03;8.93;;;7.40;;
3341;SDS011;1684;50.748;6.154;2023-05-14T01:41:34;9.27;;;8.27;;
3341;SDS011;1684;50.748;6.154;2023-05-14T01:44:04;9.20;;;8.30;;
3341;SDS011;1684;50.748;6.154;2023-05-14T01:46:33;11.53;;;8.23;;
3341;SDS011;1684;50.748;6.154;2023-05-14T01:49:01;8.43;;;7.53;;
3341;SDS011;1684;50.748;6.154;2023-05-14T01:51:29;9.63;;;7.70;;
3341;SDS011;1684;50.748;6.154;2023-05-14T01:53:58;10.60;;;8.87;;
3341;SDS011;1684;50.748;6.154;2023-05-14T01:56:27;9.27;;;8.03;;
3341;SDS011;1684;50.748;6.154;2023-05-14T01:58:56;9.77;;;8.00;;
3341;SDS011;1684;50.748;6.154;2023-05-14T02:01:24;9.03;;;7.90;;
3341;SDS011;1684;50.748;6.154;2023-05-14T02:03:52;10.57;;;9.17;;
3341;SDS011;1684;50.748;6.154;2023-05-14T02:06:20;12.60;;;8.47;;
3341;SDS011;1684;50.748;6.154;2023-05-14T02:08:49;9.23;;;7.60;;
3341;SDS011;1684;50.748;6.154;2023-05-14T02:11:17;10.10;;;9.10;;
3341;SDS011;1684;50.748;6.154;2023-05-14T02:13:46;10.00;;;7.97;;
3341;SDS011;1684;50.748;6.154;2023-05-14T02:16:15;9.53;;;7.80;;
3341;SDS011;1684;50.748;6.154;2023-05-14T02:18:44;11.07;;;7.60;;
3341;SDS011;1684;50.748;6.154;2023-05-14T02:21:12;9.03;;;7.90;;
3341;SDS011;1684;50.748;6.154;2023-05-14T02:23:41;12.47;;;7.73;;
3341;SDS011;1684;50.748;6.154;2023-05-14T02:26:09;12.70;;;7.47;;
3341;SDS011;1684;50.748;6.154;2023-05-14T02:28:40;10.67;;;8.57;;
3341;SDS011;1684;50.748;6.154;2023-05-14T02:31:10;8.20;;;7.13;;
3341;SDS011;1684;50.748;6.154;2023-05-14T02:33:38;10.00;;;8.13;;
3341;SDS011;1684;50.748;6.154;2023-05-14T02:36:07;11.23;;;8.37;;
3341;SDS011;1684;50.748;6.154;2023-05-14T02:38:35;9.27;;;6.83;;
3341;SDS011;1684;50.748;6.154;2023-05-14T02:41:03;11.90;;;8.47;;
3341;SDS011;1684;50.748;6.154;2023-05-14T02:43:31;11.03;;;8.47;;
3341;SDS011;1684;50.748;6.154;2023-05-14T02:46:00;10.13;;;8.50;;
3341;SDS011;1684;50.748;6.154;2023-05-14T02:48:30;10.30;;;9.20;;
3341;SDS011;1684;50.748;6.154;2023-05-14T02:50:58;11.13;;;9.40;;
3341;SDS011;1684;50.748;6.154;2023-05-14T02:53:27;12.00;;;9.40;;
3341;SDS011;1684;50.748;6.154;2023-05-14T02:55:55;15.23;;;8.93;;
3341;SDS011;1684;50.748;6.154;2023-05-14T02:58:23;10.03;;;8.93;;
3341;SDS011;1684;50.748;6.154;2023-05-14T03:00:53;10.30;;;9.30;;
3341;SDS011;1684;50.748;6.154;2023-05-14T03:03:22;13.90;;;8.80;;
3341;SDS011;1684;50.748;6.154;2023-05-14T03:05:52;10.10;;;8.93;;
3341;SDS011;1684;50.748;6.154;2023-05-14T03:08:21;10.63;;;8.33;;
3341;SDS011;1684;50.748;6.154;2023-05-14T03:10:49;11.53;;;9.43;;
3341;SDS011;1684;50.748;6.154;2023-05-14T03:13:17;11.33;;;8.93;;
3341;SDS011;1684;50.748;6.154;2023-05-14T03:15:46;10.17;;;9.13;;
3341;SDS011;1684;50.748;6.154;2023-05-14T03:18:14;11.17;;;9.10;;
3341;SDS011;1684;50.748;6.154;2023-05-14T03:20:42;12.00;;;9.53;;
3341;SDS011;1684;50.748;6.154;2023-05-14T03:23:12;12.83;;;10.00;;
3341;SDS011;1684;50.748;6.154;2023-05-14T03:25:40;10.53;;;9.00;;
3341;SDS011;1684;50.748;6.154;2023-05-14T03:28:08;12.27;;;10.97;;
3341;SDS011;1684;50.748;6.154;2023-05-14T03:30:37;13.33;;;9.53;;
3341;SDS011;1684;50.748;6.154;2023-05-14T03:33:05;11.87;;;10.47;;
3341;SDS011;1684;50.748;6.154;2023-05-14T03:35:33;11.40;;;9.70;;
3341;SDS011;1684;50.748;6.154;2023-05-14T03:38:01;13.67;;;9.97;;
3341;SDS011;1684;50.748;6.154;2023-05-14T03:40:31;17.93;;;10.00;;
3341;SDS011;1684;50.748;6.154;2023-05-14T03:42:59;10.40;;;9.30;;
3341;SDS011;1684;50.748;6.154;2023-05-14T03:45:28;12.83;;;9.60;;
3341;SDS011;1684;50.748;6.154;2023-05-14T03:47:56;11.03;;;8.70;;
3341;SDS011;1684;50.748;6.154;2023-05-14T03:50:25;11.47;;;10.27;;
3341;SDS011;1684;50.748;6.154;2023-05-14T03:52:53;13.87;;;10.57;;
3341;SDS011;1684;50.748;6.154;2023-05-14T03:55:21;13.17;;;10.03;;
3341;SDS011;1684;50.748;6.154;2023-05-14T03:57:51;11.60;;;9.40;;
3341;SDS011;1684;50.748;6.154;2023-05-14T04:00:19;10.87;;;9.13;;
3341;SDS011;1684;50.748;6.154;2023-05-14T04:02:48;13.80;;;10.67;;
3341;SDS011;1684;50.748;6.154;2023-05-14T04:05:16;11.60;;;9.77;;
3341;SDS011;1684;50.748;6.154;2023-05-14T04:07:44;12.83;;;9.20;;
3341;SDS011;1684;50.748;6.154;2023-05-14T04:10:12;12.43;;;10.30;;
3341;SDS011;1684;50.748;6.154;2023-05-14T04:12:41;16.93;;;11.10;;
3341;SDS011;1684;50.748;6.154;2023-05-14T04:15:11;13.03;;;10.27;;
3341;SDS011;1684;50.748;6.154;2023-05-14T04:17:39;13.23;;;10.50;;
3341;SDS011;1684;50.748;6.154;2023-05-14T04:20:08;16.13;;;10.87;;
3341;SDS011;1684;50.748;6.154;2023-05-14T04:22:36;13.80;;;10.57;;
3341;SDS011;1684;50.748;6.154;2023-05-14T04:25:05;14.13;;;9.77;;
3341;SDS011;1684;50.748;6.154;2023-05-14T04:27:33;13.00;;;10.83;;
3341;SDS011;1684;50.748;6.154;2023-05-14T04:30:02;13.00;;;10.60;;
3341;SDS011;1684;50.748;6.154;2023-05-14T04:32:31;13.90;;;10.20;;
3341;SDS011;1684;50.748;6.154;2023-05-14T04:35:00;15.23;;;11.00;;
3341;SDS011;1684;50.748;6.154;2023-05-14T04:37:29;13.47;;;10.83;;
3341;SDS011;1684;50.748;6.154;2023-05-14T04:39:58;13.10;;;11.70;;
3341;SDS011;1684;50.748;6.154;2023-05-14T04:42:26;13.70;;;11.13;;
3341;SDS011;1684;50.748;6.154;2023-05-14T04:44:54;13.10;;;10.67;;
3341;SDS011;1684;50.748;6.154;2023-05-14T04:47:23;12.70;;;10.40;;
3341;SDS011;1684;50.748;6.154;2023-05-14T04:49:53;16.00;;;11.80;;
3341;SDS011;1684;50.748;6.154;2023-05-14T04:52:21;14.20;;;10.50;;
3341;SDS011;1684;50.748;6.154;2023-05-14T04:54:49;15.40;;;11.20;;
3341;SDS011;1684;50.748;6.154;2023-05-14T04:57:17;15.20;;;11.23;;
3341;SDS011;1684;50.748;6.154;2023-05-14T04:59:46;17.13;;;12.60;;
3341;SDS011;1684;50.748;6.154;2023-05-14T05:02:14;15.67;;;13.63;;
3341;SDS011;1684;50.748;6.154;2023-05-14T05:04:42;17.50;;;12.93;;
3341;SDS011;1684;50.748;6.154;2023-05-14T05:07:13;17.10;;;12.17;;
3341;SDS011;1684;50.748;6.154;2023-05-14T05:09:42;16.17;;;11.97;;
3341;SDS011;1684;50.748;6.154;2023-05-14T05:12:10;15.80;;;13.40;;
3341;SDS011;1684;50.748;6.154;2023-05-14T05:14:38;15.63;;;13.70;;
3341;SDS011;1684;50.748;6.154;2023-05-14T05:17:06;18.67;;;14.03;;
3341;SDS011;1684;50.748;6.154;2023-05-14T05:19:34;18.50;;;13.43;;
3341;SDS011;1684;50.748;6.154;2023-05-14T05:22:09;17.90;;;14.40;;
3341;SDS011;1684;50.748;6.154;2023-05-14T05:24:39;16.53;;;12.97;;
3341;SDS011;1684;50.748;6.154;2023-05-14T05:27:07;18.27;;;13.83;;
3341;SDS011;1684;50.748;6.154;2023-05-14T05:29:35;18.00;;;14.40;;
3341;SDS011;1684;50.748;6.154;2023-05-14T05:32:04;16.83;;;14.53;;
3341;SDS011;1684;50.748;6.154;2023-05-14T05:34:33;20.87;;;16.00;;
3341;SDS011;1684;50.748;6.154;2023-05-14T05:37:01;24.33;;;17.00;;
3341;SDS011;1684;50.748;6.154;2023-05-14T05:39:31;21.00;;;14.90;;
3341;SDS011;1684;50.748;6.154;2023-05-14T05:42:01;21.63;;;16.20;;
3341;SDS011;1684;50.748;6.154;2023-05-14T05:44:30;22.47;;;15.83;;
3341;SDS011;1684;50.748;6.154;2023-05-14T05:46:58;22.87;;;15.20;;
3341;SDS011;1684;50.748;6.154;2023-05-14T05:49:26;19.83;;;15.43;;
3341;SDS011;1684;50.748;6.154;2023-05-14T05:51:55;23.33;;;17.27;;
3341;SDS011;1684;50.748;6.154;2023-05-14T05:54:23;21.10;;;16.63;;
3341;SDS011;1684;50.748;6.154;2023-05-14T05:56:52;18.03;;;14.33;;
3341;SDS011;1684;50.748;6.154;2023-05-14T05:59:21;18.40;;;14.90;;
3341;SDS011;1684;50.748;6.154;2023-05-14T06:01:50;25.07;;;17.60;;
3341;SDS011;1684;50.748;6.154;2023-05-14T06:04:18;24.10;;;15.70;;
3341;SDS011;1684;50.748;6.154;2023-05-14T06:06:46;20.37;;;15.70;;
3341;SDS011;1684;50.748;6.154;2023-05-14T06:09:14;23.27;;;17.93;;
3341;SDS011;1684;50.748;6.154;2023-05-14T06:11:43;22.67;;;16.83;;
3341;SDS011;1684;50.748;6.154;2023-05-14T06:14:11;23.53;;;17.50;;
3341;SDS011;1684;50.748;6.154;2023-05-14T06:16:40;26.77;;;17.10;;
3341;SDS011;1684;50.748;6.154;2023-05-14T06:19:09;24.13;;;17.30;;
3341;SDS011;1684;50.748;6.154;2023-05-14T06:21:37;28.20;;;20.40;;
3341;SDS011;1684;50.748;6.154;2023-05-14T06:24:06;26.47;;;20.23;;
3341;SDS011;1684;50.748;6.154;2023-05-14T06:26:34;25.80;;;20.27;;
3341;SDS011;1684;50.748;6.154;2023-05-14T06:29:02;26.50;;;19.87;;
3341;SDS011;1684;50.748;6.154;2023-05-14T06:31:30;28.60;;;20.93;;
3341;SDS011;1684;50.748;6.154;2023-05-14T06:34:00;29.73;;;21.23;;
3341;SDS011;1684;50.748;6.154;2023-05-14T06:36:28;27.00;;;20.57;;
3341;SDS011;1684;50.748;6.154;2023-05-14T06:38:57;27.07;;;20.80;;
3341;SDS011;1684;50.748;6.154;2023-05-14T06:41:25;29.20;;;23.17;;
3341;SDS011;1684;50.748;6.154;2023-05-14T06:43:54;30.17;;;22.97;;
3341;SDS011;1684;50.748;6.154;2023-05-14T06:46:22;34.80;;;24.83;;
3341;SDS011;1684;50.748;6.154;2023-05-14T06:48:51;30.80;;;23.37;;
3341;SDS011;1684;50.748;6.154;2023-05-14T06:51:20;31.23;;;23.53;;
3341;SDS011;1684;50.748;6.154;2023-05-14T06:53:48;34.70;;;26.73;;
3341;SDS011;1684;50.748;6.154;2023-05-14T06:56:17;33.87;;;24.20;;
3341;SDS011;1684;50.748;6.154;2023-05-14T06:58:46;32.43;;;21.73;;
3341;SDS011;1684;50.748;6.154;2023-05-14T07:01:15;31.30;;;23.53;;
3341;SDS011;1684;50.748;6.154;2023-05-14T07:03:43;35.20;;;24.37;;
3341;SDS011;1684;50.748;6.154;2023-05-14T07:06:11;29.00;;;22.87;;
3341;SDS011;1684;50.748;6.154;2023-05-14T07:08:42;34.03;;;24.50;;
3341;SDS011;1684;50.748;6.154;2023-05-14T07:11:11;34.23;;;24.60;;
3341;SDS011;1684;50.748;6.154;2023-05-14T07:13:40;31.73;;;24.00;;
3341;SDS011;1684;50.748;6.154;2023-05-14T07:16:08;36.90;;;25.10;;
3341;SDS011;1684;50.748;6.154;2023-05-14T07:18:36;34.60;;;24.90;;
3341;SDS011;1684;50.748;6.154;2023-05-14T07:21:05;42.10;;;26.87;;
3341;SDS011;1684;50.748;6.154;2023-05-14T07:23:34;36.07;;;24.40;;
3341;SDS011;1684;50.748;6.154;2023-05-14T07:26:05;37.40;;;25.80;;
3341;SDS011;1684;50.748;6.154;2023-05-14T07:28:33;31.73;;;24.03;;
3341;SDS011;1684;50.748;6.154;2023-05-14T07:31:01;36.30;;;23.83;;
3341;SDS011;1684;50.748;6.154;2023-05-14T07:33:34;34.53;;;26.23;;
3341;SDS011;1684;50.748;6.154;2023-05-14T07:36:02;30.63;;;23.63;;
3341;SDS011;1684;50.748;6.154;2023-05-14T07:38:31;34.10;;;25.77;;
3341;SDS011;1684;50.748;6.154;2023-05-14T07:40:59;34.70;;;23.57;;
3341;SDS011;1684;50.748;6.154;2023-05-14T07:43:29;31.83;;;24.40;;
3341;SDS011;1684;50.748;6.154;2023-05-14T07:45:57;37.50;;;28.30;;
3341;SDS011;1684;50.748;6.154;2023-05-14T07:48:25;33.67;;;25.67;;
3341;SDS011;1684;50.748;6.154;2023-05-14T07:50:54;35.30;;;25.70;;
3341;SDS011;1684;50.748;6.154;2023-05-14T07:53:22;41.20;;;27.50;;
3341;SDS011;1684;50.748;6.154;2023-05-14T07:55:51;38.67;;;27.10;;
3341;SDS011;1684;50.748;6.154;2023-05-14T07:58:19;35.67;;;25.13;;
3341;SDS011;1684;50.748;6.154;2023-05-14T08:00:50;32.73;;;23.90;;
3341;SDS011;1684;50.748;6.154;2023-05-14T08:03:18;36.43;;;28.33;;
3341;SDS011;1684;50.748;6.154;2023-05-14T08:05:46;32.00;;;24.33;;
3341;SDS011;1684;50.748;6.154;2023-05-14T08:08:15;35.60;;;24.63;;
3341;SDS011;1684;50.748;6.154;2023-05-14T08:10:43;35.50;;;25.77;;
3341;SDS011;1684;50.748;6.154;2023-05-14T08:13:11;32.90;;;23.37;;
3341;SDS011;1684;50.748;6.154;2023-05-14T08:15:39;34.60;;;25.67;;
3341;SDS011;1684;50.748;6.154;2023-05-14T08:18:09;39.00;;;27.33;;
3341;SDS011;1684;50.748;6.154;2023-05-14T08:20:37;38.80;;;28.13;;
3341;SDS011;1684;50.748;6.154;2023-05-14T08:23:06;37.20;;;25.03;;
3341;SDS011;1684;50.748;6.154;2023-05-14T08:25:34;41.05;;;31.17;;
3341;SDS011;1684;50.748;6.154;2023-05-14T08:28:02;38.97;;;28.57;;
3341;SDS011;1684;50.748;6.154;2023-05-14T08:30:31;54.00;;;24.73;;
3341;SDS011;1684;50.748;6.154;2023-05-14T08:32:59;47.07;;;26.30;;
3341;SDS011;1684;50.748;6.154;2023-05-14T08:35:29;57.50;;;26.07;;
3341;SDS011;1684;50.748;6.154;2023-05-14T08:37:57;42.87;;;30.77;;
3341;SDS011;1684;50.748;6.154;2023-05-14T08:40:25;44.33;;;29.83;;
3341;SDS011;1684;50.748;6.154;2023-05-14T08:42:54;51.40;;;29.63;;
3341;SDS011;1684;50.748;6.154;2023-05-14T08:45:25;42.30;;;25.90;;
3341;SDS011;1684;50.748;6.154;2023-05-14T08:47:54;44.73;;;30.10;;
3341;SDS011;1684;50.748;6.154;2023-05-14T08:50:22;49.67;;;26.20;;
3341;SDS011;1684;50.748;6.154;2023-05-14T08:52:52;49.70;;;28.10;;
3341;SDS011;1684;50.748;6.154;2023-05-14T08:55:20;86.63;;;34.70;;
3341;SDS011;1684;50.748;6.154;2023-05-14T08:57:49;71.63;;;26.17;;
3341;SDS011;1684;50.748;6.154;2023-05-14T09:00:17;49.30;;;27.17;;
3341;SDS011;1684;50.748;6.154;2023-05-14T09:02:45;46.80;;;26.57;;
3341;SDS011;1684;50.748;6.154;2023-05-14T09:05:14;50.80;;;33.80;;
3341;SDS011;1684;50.748;6.154;2023-05-14T09:07:46;46.77;;;32.70;;
3341;SDS011;1684;50.748;6.154;2023-05-14T09:10:15;49.43;;;33.93;;
3341;SDS011;1684;50.748;6.154;2023-05-14T09:12:44;44.00;;;28.47;;
3341;SDS011;1684;50.748;6.154;2023-05-14T09:15:12;35.27;;;16.90;;
3341;SDS011;1684;50.748;6.154;2023-05-14T09:17:40;49.57;;;32.13;;
3341;SDS011;1684;50.748;6.154;2023-05-14T09:20:09;49.37;;;31.10;;
3341;SDS011;1684;50.748;6.154;2023-05-14T09:22:39;46.60;;;33.17;;
3341;SDS011;1684;50.748;6.154;2023-05-14T09:25:08;48.97;;;32.47;;
3341;SDS011;1684;50.748;6.154;2023-05-14T09:27:39;51.53;;;32.90;;
3341;SDS011;1684;50.748;6.154;2023-05-14T09:30:07;48.27;;;33.93;;
3341;SDS011;1684;50.748;6.154;2023-05-14T09:32:36;45.60;;;32.80;;
3341;SDS011;1684;50.748;6.154;2023-05-14T09:35:12;49.43;;;32.30;;
3341;SDS011;1684;50.748;6.154;2023-05-14T09:37:43;38.30;;;26.47;;
3341;SDS011;1684;50.748;6.154;2023-05-14T09:40:11;40.37;;;31.70;;
3341;SDS011;1684;50.748;6.154;2023-05-14T09:42:41;43.37;;;30.20;;
3341;SDS011;1684;50.748;6.154;2023-05-14T09:45:10;46.17;;;31.27;;
3341;SDS011;1684;50.748;6.154;2023-05-14T09:47:38;37.40;;;24.00;;
3341;SDS011;1684;50.748;6.154;2023-05-14T09:50:08;42.50;;;27.53;;
3341;SDS011;1684;50.748;6.154;2023-05-14T09:52:37;46.20;;;32.20;;
3341;SDS011;1684;50.748;6.154;2023-05-14T09:55:05;45.90;;;31.27;;
3341;SDS011;1684;50.748;6.154;2023-05-14T09:57:34;41.27;;;30.17;;
3341;SDS011;1684;50.748;6.154;2023-05-14T10:00:05;40.43;;;29.97;;
3341;SDS011;1684;50.748;6.154;2023-05-14T10:02:36;42.27;;;28.00;;
3341;SDS011;1684;50.748;6.154;2023-05-14T10:05:06;39.43;;;29.63;;
3341;SDS011;1684;50.748;6.154;2023-05-14T10:07:37;42.90;;;31.10;;
3341;SDS011;1684;50.748;6.154;2023-05-14T10:10:07;38.00;;;30.50;;
3341;SDS011;1684;50.748;6.154;2023-05-14T10:12:38;41.27;;;32.60;;
3341;SDS011;1684;50.748;6.154;2023-05-14T10:15:11;40.50;;;28.80;;
3341;SDS011;1684;50.748;6.154;2023-05-14T10:17:41;48.10;;;38.30;;
3341;SDS011;1684;50.748;6.154;2023-05-14T10:20:11;43.80;;;34.10;;
3341;SDS011;1684;50.748;6.154;2023-05-14T10:22:41;39.23;;;29.90;;
3341;SDS011;1684;50.748;6.154;2023-05-14T10:25:09;38.80;;;30.33;;
3341;SDS011;1684;50.748;6.154;2023-05-14T10:27:38;39.73;;;30.67;;
3341;SDS011;1684;50.748;6.154;2023-05-14T10:30:10;35.67;;;26.77;;
3341;SDS011;1684;50.748;6.154;2023-05-14T10:32:39;42.37;;;31.67;;
3341;SDS011;1684;50.748;6.154;2023-05-14T10:35:15;44.03;;;32.53;;
3341;SDS011;1684;50.748;6.154;2023-05-14T10:37:45;46.60;;;37.63;;
3341;SDS011;1684;50.748;6.154;2023-05-14T10:40:13;34.00;;;28.80;;
3341;SDS011;1684;50.748;6.154;2023-05-14T10:42:43;44.30;;;37.93;;
3341;SDS011;1684;50.748;6.154;2023-05-14T10:45:14;39.73;;;33.80;;
3341;SDS011;1684;50.748;6.154;2023-05-14T10:47:43;37.30;;;29.73;;
3341;SDS011;1684;50.748;6.154;2023-05-14T10:50:12;44.37;;;35.87;;
3341;SDS011;1684;50.748;6.154;2023-05-14T10:52:41;48.57;;;38.07;;
3341;SDS011;1684;50.748;6.154;2023-05-14T10:55:11;39.50;;;31.90;;
3341;SDS011;1684;50.748;6.154;2023-05-14T10:57:40;32.27;;;26.93;;
3341;SDS011;1684;50.748;6.154;2023-05-14T11:00:10;34.20;;;27.33;;
3341;SDS011;1684;50.748;6.154;2023-05-14T11:02:40;44.30;;;34.67;;
3341;SDS011;1684;50.748;6.154;2023-05-14T11:05:09;33.77;;;25.47;;
3341;SDS011;1684;50.748;6.154;2023-05-14T11:07:40;38.80;;;32.20;;
3341;SDS011;1684;50.748;6.154;2023-05-14T11:10:09;42.67;;;33.20;;
3341;SDS011;1684;50.748;6.154;2023-05-14T11:12:39;41.30;;;33.80;;
3341;SDS011;1684;50.748;6.154;2023-05-14T11:15:08;42.90;;;32.67;;
3341;SDS011;1684;50.748;6.154;2023-05-14T11:17:37;49.00;;;34.20;;
3341;SDS011;1684;50.748;6.154;2023-05-14T11:20:07;42.63;;;33.60;;
3341;SDS011;1684;50.748;6.154;2023-05-14T11:22:36;40.03;;;32.90;;
3341;SDS011;1684;50.748;6.154;2023-05-14T11:25:05;35.03;;;29.80;;
3341;SDS011;1684;50.748;6.154;2023-05-14T11:27:35;37.20;;;30.80;;
3341;SDS011;1684;50.748;6.154;2023-05-14T11:30:04;41.43;;;31.63;;
3341;SDS011;1684;50.748;6.154;2023-05-14T11:32:32;41.30;;;33.30;;
3341;SDS011;1684;50.748;6.154;2023-05-14T11:35:02;38.40;;;32.60;;
3341;SDS011;1684;50.748;6.154;2023-05-14T11:37:32;37.17;;;31.73;;
3341;SDS011;1684;50.748;6.154;2023-05-14T11:40:00;39.63;;;32.10;;
3341;SDS011;1684;50.748;6.154;2023-05-14T11:42:31;40.93;;;25.30;;
3341;SDS011;1684;50.748;6.154;2023-05-14T11:44:59;37.50;;;26.60;;
3341;SDS011;1684;50.748;6.154;2023-05-14T11:47:28;39.17;;;29.87;;
3341;SDS011;1684;50.748;6.154;2023-05-14T11:49:57;30.30;;;26.30;;
3341;SDS011;1684;50.748;6.154;2023-05-14T11:52:26;31.43;;;27.47;;
3341;SDS011;1684;50.748;6.154;2023-05-14T11:54:55;39.93;;;25.80;;
3341;SDS011;1684;50.748;6.154;2023-05-14T11:57:23;31.93;;;26.00;;
3341;SDS011;1684;50.748;6.154;2023-05-14T11:59:54;27.93;;;21.07;;
3341;SDS011;1684;50.748;6.154;2023-05-14T12:02:23;29.47;;;23.97;;
3341;SDS011;1684;50.748;6.154;2023-05-14T12:04:54;27.67;;;24.57;;
3341;SDS011;1684;50.748;6.154;2023-05-14T12:07:22;30.07;;;22.40;;
3341;SDS011;1684;50.748;6.154;2023-05-14T12:09:50;33.70;;;26.47;;
3341;SDS011;1684;50.748;6.154;2023-05-14T12:12:20;29.27;;;26.10;;
3341;SDS011;1684;50.748;6.154;2023-05-14T12:14:49;28.83;;;24.00;;
3341;SDS011;1684;50.748;6.154;2023-05-14T12:17:18;30.67;;;25.60;;
3341;SDS011;1684;50.748;6.154;2023-05-14T12:19:49;25.20;;;22.70;;
3341;SDS011;1684;50.748;6.154;2023-05-14T12:22:26;24.87;;;21.03;;
3341;SDS011;1684;50.748;6.154;2023-05-14T12:24:56;26.20;;;23.10;;
3341;SDS011;1684;50.748;6.154;2023-05-14T12:27:28;23.47;;;20.97;;
3341;SDS011;1684;50.748;6.154;2023-05-14T12:29:59;20.40;;;18.20;;
3341;SDS011;1684;50.748;6.154;2023-05-14T12:32:46;20.87;;;18.57;;
3341;SDS011;1684;50.748;6.154;2023-05-14T12:35:17;24.40;;;20.20;;
3341;SDS011;1684;50.748;6.154;2023-05-14T12:37:45;22.37;;;19.10;;
3341;SDS011;1684;50.748;6.154;2023-05-14T12:40:14;21.63;;;19.40;;
3341;SDS011;1684;50.748;6.154;2023-05-14T12:42:44;22.90;;;20.43;;
3341;SDS011;1684;50.748;6.154;2023-05-14T12:45:12;24.53;;;21.83;;
3341;SDS011;1684;50.748;6.154;2023-05-14T12:47:40;28.20;;;21.93;;
3341;SDS011;1684;50.748;6.154;2023-05-14T12:50:09;19.60;;;16.90;;
3341;SDS011;1684;50.748;6.154;2023-05-14T12:52:37;16.20;;;14.50;;
3341;SDS011;1684;50.748;6.154;2023-05-14T12:55:06;14.30;;;12.80;;
3341;SDS011;1684;50.748;6.154;2023-05-14T12:57:35;12.87;;;11.57;;
3341;SDS011;1684;50.748;6.154;2023-05-14T13:00:07;15.60;;;14.00;;
3341;SDS011;1684;50.748;6.154;2023-05-14T13:02:39;16.17;;;11.57;;
3341;SDS011;1684;50.748;6.154;2023-05-14T13:05:09;21.00;;;18.90;;
3341;SDS011;1684;50.748;6.154;2023-05-14T13:07:38;15.10;;;13.10;;
3341;SDS011;1684;50.748;6.154;2023-05-14T13:10:07;14.70;;;13.10;;
3341;SDS011;1684;50.748;6.154;2023-05-14T13:12:35;14.93;;;12.60;;
3341;SDS011;1684;50.748;6.154;2023-05-14T13:15:06;12.73;;;7.57;;
3341;SDS011;1684;50.748;6.154;2023-05-14T13:17:34;14.73;;;13.23;;
3341;SDS011;1684;50.748;6.154;2023-05-14T13:20:03;18.40;;;15.70;;
3341;SDS011;1684;50.748;6.154;2023-05-14T13:22:32;9.30;;;6.70;;
3341;SDS011;1684;50.748;6.154;2023-05-14T13:25:00;11.03;;;9.67;;
3341;SDS011;1684;50.748;6.154;2023-05-14T13:27:28;11.27;;;10.03;;
3341;SDS011;1684;50.748;6.154;2023-05-14T13:29:57;15.70;;;13.53;;
3341;SDS011;1684;50.748;6.154;2023-05-14T13:32:26;12.30;;;11.00;;
3341;SDS011;1684;50.748;6.154;2023-05-14T13:34:54;24.10;;;11.70;;
3341;SDS011;1684;50.748;6.154;2023-05-14T13:37:23;10.60;;;9.60;;
3341;SDS011;1684;50.748;6.154;2023-05-14T13:39:52;15.00;;;11.50;;
3341;SDS011;1684;50.748;6.154;2023-05-14T13:42:20;9.33;;;5.93;;
3341;SDS011;1684;50.748;6.154;2023-05-14T13:44:49;13.57;;;12.17;;
3341;SDS011;1684;50.748;6.154;2023-05-14T13:47:17;12.73;;;11.33;;
3341;SDS011;1684;50.748;6.154;2023-05-14T13:49:46;12.43;;;11.17;;
3341;SDS011;1684;50.748;6.154;2023-05-14T13:52:15;11.80;;;9.77;;
3341;SDS011;1684;50.748;6.154;2023-05-14T13:54:43;13.00;;;11.77;;
3341;SDS011;1684;50.748;6.154;2023-05-14T13:57:12;14.13;;;12.73;;
3341;SDS011;1684;50.748;6.154;2023-05-14T13:59:41;16.30;;;12.40;;
3341;SDS011;1684;50.748;6.154;2023-05-14T14:02:09;13.07;;;10.90;;
3341;SDS011;1684;50.748;6.154;2023-05-14T14:04:37;13.63;;;11.90;;
3341;SDS011;1684;50.748;6.154;2023-05-14T14:07:07;14.20;;;12.20;;
3341;SDS011;1684;50.748;6.154;2023-05-14T14:09:35;13.97;;;12.57;;
3341;SDS011;1684;50.748;6.154;2023-05-14T14:12:04;12.80;;;11.43;;
3341;SDS011;1684;50.748;6.154;2023-05-14T14:14:32;12.90;;;11.57;;
3341;SDS011;1684;50.748;6.154;2023-05-14T14:17:00;15.17;;;12.10;;
3341;SDS011;1684;50.748;6.154;2023-05-14T14:19:29;14.30;;;12.87;;
3341;SDS011;1684;50.748;6.154;2023-05-14T14:21:58;12.27;;;10.00;;
3341;SDS011;1684;50.748;6.154;2023-05-14T14:24:27;11.50;;;10.40;;
3341;SDS011;1684;50.748;6.154;2023-05-14T14:26:55;11.27;;;10.17;;
3341;SDS011;1684;50.748;6.154;2023-05-14T14:29:24;12.50;;;11.20;;
3341;SDS011;1684;50.748;6.154;2023-05-14T14:31:53;12.57;;;11.33;;
3341;SDS011;1684;50.748;6.154;2023-05-14T14:34:21;11.93;;;10.80;;
3341;SDS011;1684;50.748;6.154;2023-05-14T14:36:50;7.53;;;6.83;;
3341;SDS011;1684;50.748;6.154;2023-05-14T14:39:18;12.97;;;11.10;;
3341;SDS011;1684;50.748;6.154;2023-05-14T14:41:50;8.00;;;6.90;;
3341;SDS011;1684;50.748;6.154;2023-05-14T14:44:19;10.00;;;9.00;;
3341;SDS011;1684;50.748;6.154;2023-05-14T14:46:47;7.67;;;6.97;;
3341;SDS011;1684;50.748;6.154;2023-05-14T14:49:15;11.90;;;10.80;;
3341;SDS011;1684;50.748;6.154;2023-05-14T14:51:44;12.20;;;11.00;;
3341;SDS011;1684;50.748;6.154;2023-05-14T14:54:12;10.57;;;9.43;;
3341;SDS011;1684;50.748;6.154;2023-05-14T14:56:41;11.80;;;10.60;;
3341;SDS011;1684;50.748;6.154;2023-05-14T14:59:12;10.03;;;9.20;;
3341;SDS011;1684;50.748;6.154;2023-05-14T15:01:40;10.50;;;9.57;;
3341;SDS011;1684;50.748;6.154;2023-05-14T15:04:09;10.90;;;9.80;;
3341;SDS011;1684;50.748;6.154;2023-05-14T15:06:37;10.10;;;9.13;;